Time;durP1;ratioP1;P1;durP2;ratioP2;P2;SDS_P1;SDS_P2;PMS_P1;PMS_P2;Temp;Humidity;BMP_temperature;BMP_pressure;BME280_temperature;BME280_humidity;BME280_pressure;Samples;Min_cycle;Max_cycle;Signal;HPM_P1;HPM_P2
2022/11/06 00:00:50;;;;;;;11.40;6.85;;;10.00;99.90;;;;;;4929708;29;20047;-66
2022/11/06 00:03:15;;;;;;;10.45;5.57;;;9.90;99.90;;;;;;4928712;29;20491;-64
2022/11/06 00:08:28;;;;;;;11.32;6.05;;;9.90;99.90;;;;;;4924337;29;20044;-65
2022/11/06 00:10:54;;;;;;;14.45;6.25;;;9.90;99.90;;;;;;4930518;29;20047;-64
2022/11/06 00:13:19;;;;;;;12.20;5.82;;;9.90;99.90;;;;;;4918253;29;20113;-64
2022/11/06 00:15:45;;;;;;;14.70;6.38;;;9.80;99.90;;;;;;4933061;29;20031;-66
2022/11/06 00:18:10;;;;;;;11.40;6.22;;;9.80;99.90;;;;;;4930963;29;20039;-65
2022/11/06 00:20:36;;;;;;;10.32;6.03;;;9.80;99.90;;;;;;4929469;29;20048;-65
2022/11/06 00:23:02;;;;;;;9.48;5.53;;;9.80;99.90;;;;;;4932861;29;20504;-65
2022/11/06 00:25:27;;;;;;;11.73;5.95;;;9.80;99.90;;;;;;4927778;29;20040;-66
2022/11/06 00:27:53;;;;;;;11.68;6.20;;;9.80;99.90;;;;;;4911510;29;20056;-65
2022/11/06 00:30:19;;;;;;;12.07;6.28;;;9.70;99.90;;;;;;4930359;29;20095;-64
2022/11/06 00:32:46;;;;;;;11.10;6.60;;;9.80;99.90;;;;;;4928191;29;20047;-65
2022/11/06 00:35:12;;;;;;;10.95;6.20;;;9.80;99.90;;;;;;4931830;29;20086;-65
2022/11/06 00:37:38;;;;;;;11.85;6.88;;;9.80;99.90;;;;;;4932397;29;20036;-65
2022/11/06 00:40:04;;;;;;;11.55;6.60;;;9.70;99.90;;;;;;4928281;29;20138;-65
2022/11/06 00:42:30;;;;;;;10.48;6.20;;;9.70;99.90;;;;;;4927821;29;20052;-64
2022/11/06 00:44:55;;;;;;;13.05;6.20;;;9.60;99.90;;;;;;4931147;29;20050;-63
2022/11/06 00:47:21;;;;;;;12.27;6.35;;;9.50;99.90;;;;;;4930075;29;20706;-64
2022/11/06 00:49:46;;;;;;;18.00;7.22;;;9.40;99.90;;;;;;4914425;29;20052;-66
2022/11/06 00:52:12;;;;;;;15.00;6.88;;;9.30;99.90;;;;;;4929888;29;20499;-65
2022/11/06 00:54:38;;;;;;;15.68;7.57;;;9.20;99.90;;;;;;4915901;29;20032;-66
2022/11/06 00:57:03;;;;;;;11.52;6.55;;;9.20;99.90;;;;;;4927988;29;20122;-64
2022/11/06 00:59:29;;;;;;;13.40;7.05;;;9.10;99.90;;;;;;4932932;29;20608;-65
2022/11/06 01:01:54;;;;;;;15.07;7.00;;;9.20;99.90;;;;;;4929583;29;20484;-66
2022/11/06 01:04:22;;;;;;;13.77;7.07;;;9.20;99.90;;;;;;4915843;29;20035;-66
2022/11/06 01:06:51;;;;;;;12.10;7.00;;;9.10;99.90;;;;;;4931129;29;20067;-65
2022/11/06 01:09:19;;;;;;;14.68;7.10;;;9.20;99.90;;;;;;4932982;29;20627;-67
2022/11/06 01:11:48;;;;;;;15.05;7.15;;;9.10;99.90;;;;;;4933383;29;20055;-65
2022/11/06 01:14:15;;;;;;;12.88;6.70;;;9.20;99.90;;;;;;4930494;29;20047;-64
2022/11/06 01:16:41;;;;;;;17.35;7.10;;;9.20;99.90;;;;;;4928978;29;20044;-62
2022/11/06 01:19:06;;;;;;;12.57;6.78;;;9.20;99.90;;;;;;4931144;29;20099;-66
2022/11/06 01:21:35;;;;;;;13.32;7.47;;;9.20;99.90;;;;;;4933135;29;20123;-65
2022/11/06 01:24:07;;;;;;;15.45;7.60;;;9.20;99.90;;;;;;4927118;29;20047;-65
2022/11/06 01:26:33;;;;;;;13.30;7.10;;;9.30;99.90;;;;;;4930849;29;20237;-65
2022/11/06 01:28:59;;;;;;;13.63;6.82;;;9.20;99.90;;;;;;4927684;29;20043;-64
2022/11/06 01:31:27;;;;;;;14.02;7.85;;;9.20;99.90;;;;;;4928529;29;20111;-67
2022/11/06 01:33:54;;;;;;;14.95;7.90;;;9.10;99.90;;;;;;4911616;29;20043;-66
2022/11/06 01:36:20;;;;;;;13.50;7.47;;;9.00;99.90;;;;;;4928227;29;20484;-65
2022/11/06 01:38:50;;;;;;;18.00;8.68;;;8.90;99.90;;;;;;4901151;29;20040;-66
2022/11/06 01:41:22;;;;;;;15.23;8.27;;;8.80;99.90;;;;;;4915026;29;20051;-65
2022/11/06 01:43:55;;;;;;;16.13;8.63;;;8.80;99.90;;;;;;4930490;29;20032;-67
2022/11/06 01:46:23;;;;;;;21.35;8.90;;;8.80;99.90;;;;;;4917132;29;20035;-66
2022/11/06 01:49:11;;;;;;;19.67;9.07;;;8.70;99.90;;;;;;4915343;29;20503;-66
2022/11/06 01:51:43;;;;;;;14.73;8.30;;;8.70;99.90;;;;;;4913355;29;20516;-65
2022/11/06 01:54:10;;;;;;;15.90;9.40;;;8.70;99.90;;;;;;4930089;29;20528;-65
2022/11/06 01:56:38;;;;;;;18.92;9.27;;;8.70;99.90;;;;;;4930574;29;20115;-66
2022/11/06 01:59:05;;;;;;;19.73;10.02;;;8.70;99.90;;;;;;4925594;29;20067;-64
2022/11/06 02:01:31;;;;;;;15.60;8.73;;;8.70;99.90;;;;;;4925081;29;20051;-66
2022/11/06 02:04:28;;;;;;;17.23;9.50;;;8.70;99.90;;;;;;4930783;29;20040;-65
2022/11/06 02:06:56;;;;;;;15.65;9.20;;;8.70;99.90;;;;;;4926645;29;20127;-64
2022/11/06 02:09:23;;;;;;;18.90;9.90;;;8.70;99.90;;;;;;4931913;29;20099;-65
2022/11/06 02:12:12;;;;;;;17.33;8.90;;;8.70;99.90;;;;;;4932606;29;20044;-65
2022/11/06 02:15:02;;;;;;;18.95;9.55;;;8.70;99.90;;;;;;4924405;29;20094;-63
2022/11/06 02:17:54;;;;;;;17.33;9.20;;;8.70;99.90;;;;;;4924181;29;20099;-65
2022/11/06 02:20:40;;;;;;;17.13;9.70;;;8.70;99.90;;;;;;4913898;29;20040;-64
2022/11/06 02:23:24;;;;;;;20.45;9.02;;;8.70;99.90;;;;;;4924675;29;20555;-65
2022/11/06 02:26:19;;;;;;;17.98;9.48;;;8.60;99.90;;;;;;4900795;29;20062;-65
2022/11/06 02:28:56;;;;;;;19.50;9.00;;;8.60;99.90;;;;;;4922970;29;20051;-64
2022/11/06 02:31:33;;;;;;;15.80;9.15;;;8.60;99.90;;;;;;4932399;29;20039;-66
2022/11/06 02:34:04;;;;;;;18.38;9.93;;;8.60;99.90;;;;;;4931123;29;20063;-64
2022/11/06 02:36:34;;;;;;;16.30;9.30;;;8.70;99.90;;;;;;4931159;29;20396;-66
2022/11/06 02:39:08;;;;;;;17.50;9.63;;;8.70;99.90;;;;;;4935204;29;20560;-66
2022/11/06 02:41:38;;;;;;;21.45;9.52;;;8.60;99.90;;;;;;4933260;29;20496;-65
2022/11/06 02:44:08;;;;;;;23.58;9.60;;;8.60;99.90;;;;;;4910566;29;20054;-64
2022/11/06 02:46:38;;;;;;;16.77;10.20;;;8.60;99.90;;;;;;4932624;29;20039;-65
2022/11/06 02:49:10;;;;;;;17.38;10.30;;;8.60;99.90;;;;;;4933763;29;20126;-66
2022/11/06 02:51:41;;;;;;;18.42;9.82;;;8.60;99.90;;;;;;4925681;29;21033;-65
2022/11/06 02:54:09;;;;;;;17.98;9.82;;;8.60;99.90;;;;;;4932803;29;20576;-66
2022/11/06 02:56:43;;;;;;;17.33;9.85;;;8.60;99.90;;;;;;4933339;29;20090;-64
2022/11/06 02:59:26;;;;;;;19.02;10.75;;;8.60;99.90;;;;;;4916517;29;20063;-65
2022/11/06 03:02:01;;;;;;;16.52;9.63;;;8.60;99.90;;;;;;4918168;29;20109;-65
2022/11/06 03:04:37;;;;;;;16.98;9.70;;;8.60;99.90;;;;;;4928887;29;20425;-65
2022/11/06 03:07:27;;;;;;;17.50;9.02;;;8.70;99.90;;;;;;4932226;29;20050;-65
2022/11/06 03:09:54;;;;;;;18.80;9.05;;;8.70;99.90;;;;;;4932906;29;20102;-64
2022/11/06 03:12:29;;;;;;;18.17;8.90;;;8.70;99.90;;;;;;4934664;29;20575;-65
2022/11/06 03:14:58;;;;;;;18.05;8.43;;;8.70;99.90;;;;;;4934434;29;20130;-65
2022/11/06 03:17:39;;;;;;;22.77;9.57;;;8.70;99.90;;;;;;4930550;29;20134;-63
2022/11/06 03:20:35;;;;;;;20.23;9.05;;;8.70;99.90;;;;;;4930883;29;20055;-65
2022/11/06 03:23:33;;;;;;;16.98;9.25;;;8.70;99.90;;;;;;4917258;29;20051;-65
2022/11/06 03:26:20;;;;;;;19.52;8.68;;;8.60;99.90;;;;;;4924875;29;20051;-64
2022/11/06 03:28:54;;;;;;;15.95;9.35;;;8.70;99.90;;;;;;4915197;29;20067;-64
2022/11/06 03:31:29;;;;;;;19.48;8.70;;;8.70;99.90;;;;;;4929678;29;20043;-66
2022/11/06 03:34:00;;;;;;;17.00;8.65;;;8.60;99.90;;;;;;4930065;29;20040;-65
2022/11/06 03:36:32;;;;;;;18.75;9.15;;;8.60;99.90;;;;;;4930178;29;20042;-65
2022/11/06 03:39:02;;;;;;;16.95;9.10;;;8.60;99.90;;;;;;4913601;29;20051;-64
2022/11/06 03:41:38;;;;;;;16.95;9.60;;;8.60;99.90;;;;;;4931098;29;20043;-65
2022/11/06 03:44:07;;;;;;;18.05;9.15;;;8.60;99.90;;;;;;4931769;29;20042;-64
2022/11/06 03:46:37;;;;;;;15.93;8.50;;;8.60;99.90;;;;;;4930606;29;20093;-66
2022/11/06 03:49:07;;;;;;;17.02;8.77;;;8.60;99.90;;;;;;4933246;29;20044;-66
2022/11/06 03:51:37;;;;;;;;;;;8.60;99.90;;;;;;4923374;29;20043;-65
2022/11/06 03:54:10;;;;;;;13.98;8.68;;;8.60;99.90;;;;;;4934241;29;19952;-66
2022/11/06 03:56:51;;;;;;;16.35;8.15;;;8.60;99.90;;;;;;4925101;29;20110;-66
2022/11/06 03:59:22;;;;;;;14.93;8.52;;;8.60;99.90;;;;;;4927955;29;20095;-66
2022/11/06 04:01:49;;;;;;;15.45;8.45;;;8.60;99.90;;;;;;4915976;29;20572;-65
2022/11/06 04:04:20;;;;;;;20.77;8.95;;;8.60;99.90;;;;;;4928514;29;20458;-65
2022/11/06 04:07:01;;;;;;;15.43;8.88;;;8.60;99.90;;;;;;4933522;29;20047;-67
2022/11/06 04:15:05;;;;;;;18.43;8.37;;;8.50;99.90;;;;;;4931600;29;20051;-66
2022/11/06 04:17:32;;;;;;;19.08;8.23;;;8.50;99.90;;;;;;4930455;29;20040;-65
2022/11/06 04:20:01;;;;;;;18.25;8.45;;;8.60;99.90;;;;;;4928801;29;20128;-65
2022/11/06 04:22:35;;;;;;;18.02;8.73;;;8.50;99.90;;;;;;4923569;29;20040;-66
2022/11/06 04:28:22;;;;;;;22.42;8.48;;;8.60;99.90;;;;;;4928138;29;20075;-64
2022/11/06 04:30:51;;;;;;;19.45;8.77;;;8.50;99.90;;;;;;4932545;29;20051;-65
2022/11/06 04:33:37;;;;;;;17.77;7.97;;;8.60;99.90;;;;;;4930798;29;20492;-65
2022/11/06 04:36:14;;;;;;;16.73;8.13;;;8.50;99.90;;;;;;4932029;29;20044;-65
2022/11/06 04:38:46;;;;;;;16.10;8.10;;;8.50;99.90;;;;;;4926384;29;20043;-65
2022/11/06 04:41:33;;;;;;;14.90;8.50;;;8.60;99.90;;;;;;4933117;29;20039;-65
2022/11/06 04:44:36;;;;;;;17.77;7.72;;;8.50;99.90;;;;;;4926483;29;20400;-65
2022/11/06 04:47:06;;;;;;;16.17;7.88;;;8.60;99.90;;;;;;4909923;29;20477;-65
2022/11/06 04:49:34;;;;;;;12.32;7.55;;;8.50;99.90;;;;;;4915567;29;20044;-66
2022/11/06 04:52:02;;;;;;;18.20;7.97;;;8.60;99.90;;;;;;4928890;29;20036;-66
2022/11/06 04:54:28;;;;;;;15.80;8.10;;;8.50;99.90;;;;;;4930311;29;20048;-66
2022/11/06 04:56:59;;;;;;;19.67;8.90;;;8.50;99.90;;;;;;4931714;29;20090;-66
2022/11/06 04:59:25;;;;;;;17.17;8.07;;;8.50;99.90;;;;;;4929711;29;20408;-66
2022/11/06 05:01:51;;;;;;;13.68;7.25;;;8.60;99.90;;;;;;4930456;29;20051;-66
2022/11/06 05:04:16;;;;;;;14.15;7.50;;;8.60;99.90;;;;;;4932648;29;20048;-64
2022/11/06 05:06:42;;;;;;;14.85;7.47;;;8.60;99.90;;;;;;4932085;29;20126;-64
2022/11/06 05:09:07;;;;;;;12.65;7.65;;;8.60;99.90;;;;;;4915025;29;20047;-65
2022/11/06 05:11:33;;;;;;;13.52;7.20;;;8.60;99.90;;;;;;4929932;29;20118;-65
2022/11/06 05:13:59;;;;;;;15.63;7.53;;;8.60;99.90;;;;;;4930647;29;20031;-66
2022/11/06 05:16:24;;;;;;;15.45;7.10;;;8.60;99.90;;;;;;4932614;29;20043;-65
2022/11/06 05:18:50;;;;;;;19.13;7.43;;;8.60;99.90;;;;;;4914780;29;20040;-65
2022/11/06 05:23:59;;;;;;;13.52;7.22;;;8.60;99.90;;;;;;4926152;29;20044;-66
2022/11/06 05:26:25;;;;;;;14.48;6.60;;;8.60;99.90;;;;;;4929128;29;20054;-64
2022/11/06 05:28:50;;;;;;;14.77;7.10;;;8.60;99.90;;;;;;4927948;29;20115;-65
2022/11/06 05:31:16;;;;;;;15.02;6.97;;;8.60;99.90;;;;;;4926318;29;20480;-64
2022/11/06 05:33:42;;;;;;;15.65;7.30;;;8.60;99.90;;;;;;4928327;29;20519;-65
2022/11/06 05:36:08;;;;;;;13.23;7.15;;;8.60;99.90;;;;;;4913714;29;20376;-64
2022/11/06 05:38:33;;;;;;;11.55;6.72;;;8.60;99.90;;;;;;4927093;29;20115;-64
2022/11/06 05:40:59;;;;;;;11.70;6.18;;;8.60;99.90;;;;;;4910750;29;20043;-65
2022/11/06 05:43:25;;;;;;;10.45;6.35;;;8.60;99.90;;;;;;4931569;29;20071;-64
2022/11/06 05:45:51;;;;;;;12.60;6.32;;;8.60;99.90;;;;;;4928732;29;20042;-65
2022/11/06 05:48:16;;;;;;;11.13;6.40;;;8.60;99.90;;;;;;4931779;29;20046;-65
2022/11/06 05:50:42;;;;;;;10.10;6.72;;;8.60;99.90;;;;;;4931012;29;20039;-65
2022/11/06 05:53:08;;;;;;;17.13;6.43;;;8.60;99.90;;;;;;4929612;29;20036;-64
2022/11/06 05:55:33;;;;;;;11.85;6.22;;;8.60;99.90;;;;;;4932163;29;20483;-64
2022/11/06 05:57:59;;;;;;;13.52;5.82;;;8.70;99.90;;;;;;4930080;29;20107;-65
2022/11/06 06:00:24;;;;;;;10.15;5.60;;;8.60;99.90;;;;;;4931529;29;20127;-64
2022/11/06 06:02:50;;;;;;;13.25;5.47;;;8.60;99.90;;;;;;4900090;29;20048;-65
2022/11/06 06:05:16;;;;;;;14.27;5.90;;;8.60;99.90;;;;;;4927684;29;20043;-65
2022/11/06 06:07:41;;;;;;;9.25;5.03;;;8.70;99.90;;;;;;4914506;29;20440;-65
2022/11/06 06:10:08;;;;;;;9.95;5.35;;;8.60;99.90;;;;;;4928904;29;20128;-65
2022/11/06 06:12:33;;;;;;;12.70;4.72;;;8.70;99.90;;;;;;4922144;29;20040;-64
2022/11/06 06:14:59;;;;;;;9.30;5.22;;;8.60;99.90;;;;;;4925030;29;20137;-65
2022/11/06 06:17:24;;;;;;;9.90;5.10;;;8.60;99.90;;;;;;4930820;29;20497;-64
2022/11/06 06:19:50;;;;;;;14.90;5.30;;;8.70;99.90;;;;;;4929642;29;20066;-66
2022/11/06 06:22:16;;;;;;;12.02;4.85;;;8.70;99.90;;;;;;4931693;29;20046;-65
2022/11/06 06:24:41;;;;;;;11.98;4.85;;;8.70;99.90;;;;;;4932242;29;20047;-66
2022/11/06 06:27:07;;;;;;;15.32;5.15;;;8.70;99.90;;;;;;4904892;29;20051;-66
2022/11/06 06:29:33;;;;;;;11.27;4.53;;;8.70;99.90;;;;;;4924043;29;20044;-64
2022/11/06 06:31:58;;;;;;;13.02;4.90;;;8.80;99.90;;;;;;4928782;29;20051;-65
2022/11/06 06:34:24;;;;;;;12.23;4.97;;;8.70;99.90;;;;;;4930410;29;20055;-64
2022/11/06 06:36:51;;;;;;;12.95;4.70;;;8.80;99.90;;;;;;4928246;29;20123;-66
2022/11/06 06:39:18;;;;;;;11.20;4.85;;;8.80;99.90;;;;;;4930833;29;20043;-65
2022/11/06 06:41:44;;;;;;;10.80;4.50;;;8.80;99.90;;;;;;4929849;29;20567;-64
2022/11/06 06:44:10;;;;;;;11.85;4.68;;;8.90;99.90;;;;;;4928902;29;20050;-65
2022/11/06 06:46:36;;;;;;;8.27;4.60;;;8.80;99.90;;;;;;4929264;29;20496;-65
2022/11/06 06:49:01;;;;;;;14.68;4.57;;;8.90;99.90;;;;;;4930837;29;20044;-65
2022/11/06 06:51:27;;;;;;;9.98;4.60;;;8.90;99.90;;;;;;4910729;29;20459;-64
2022/11/06 06:53:52;;;;;;;9.90;3.85;;;8.90;99.90;;;;;;4928864;29;20747;-64
2022/11/06 06:56:18;;;;;;;15.00;4.38;;;8.90;99.90;;;;;;4930802;29;20498;-64
2022/11/06 06:58:43;;;;;;;14.15;4.32;;;8.90;99.90;;;;;;4929204;29;20405;-65
2022/11/06 07:01:09;;;;;;;13.90;4.15;;;9.00;99.90;;;;;;4923649;29;20102;-64
2022/11/06 07:03:36;;;;;;;13.57;4.55;;;9.00;99.90;;;;;;4925619;29;20035;-63
2022/11/06 07:06:02;;;;;;;7.93;4.00;;;9.00;99.90;;;;;;4926643;29;20056;-65
2022/11/06 07:08:28;;;;;;;10.20;3.70;;;9.00;99.90;;;;;;4930473;29;20040;-64
2022/11/06 07:11:01;;;;;;;10.13;4.25;;;9.10;99.90;;;;;;4929116;29;20519;-64
2022/11/06 07:13:27;;;;;;;11.70;3.88;;;9.10;99.90;;;;;;4931948;29;20048;-64
2022/11/06 07:15:53;;;;;;;12.48;4.35;;;9.10;99.90;;;;;;4932602;29;20384;-64
2022/11/06 07:18:18;;;;;;;11.25;3.72;;;9.10;99.90;;;;;;4933545;29;20046;-64
2022/11/06 07:20:44;;;;;;;10.52;4.15;;;9.10;99.90;;;;;;4932810;29;20050;-65
2022/11/06 07:23:09;;;;;;;9.77;3.45;;;9.10;99.90;;;;;;4934605;29;20454;-65
2022/11/06 07:25:35;;;;;;;8.82;3.15;;;9.10;99.90;;;;;;4933428;29;20114;-65
2022/11/06 07:28:05;;;;;;;9.93;3.33;;;9.20;99.90;;;;;;4930405;29;20130;-65
2022/11/06 07:30:32;;;;;;;12.45;3.72;;;9.20;99.90;;;;;;4930140;29;20039;-64
2022/11/06 07:33:04;;;;;;;8.80;3.38;;;9.20;99.90;;;;;;4930744;29;20111;-64
2022/11/06 07:35:31;;;;;;;7.30;3.42;;;9.10;99.90;;;;;;4934901;29;20123;-64
2022/11/06 07:37:57;;;;;;;8.23;3.60;;;9.20;99.90;;;;;;4914714;29;20135;-64
2022/11/06 07:40:22;;;;;;;9.32;3.60;;;9.20;99.90;;;;;;4918742;29;20119;-64
2022/11/06 07:42:48;;;;;;;7.40;3.08;;;9.20;99.90;;;;;;4931252;29;20039;-64
2022/11/06 07:45:14;;;;;;;10.82;3.50;;;9.20;99.90;;;;;;4928717;29;20036;-63
2022/11/06 07:47:40;;;;;;;6.70;2.97;;;9.30;99.90;;;;;;4928982;29;20036;-65
2022/11/06 07:50:06;;;;;;;7.80;3.20;;;9.30;99.90;;;;;;4899558;29;20067;-64
2022/11/06 07:52:32;;;;;;;9.70;3.03;;;9.30;99.90;;;;;;4908951;29;20046;-64
2022/11/06 07:54:58;;;;;;;9.32;2.90;;;9.40;99.90;;;;;;4934486;29;20041;-63
2022/11/06 07:57:24;;;;;;;12.15;2.97;;;9.40;99.90;;;;;;4930269;29;20443;-64
2022/11/06 07:59:49;;;;;;;9.20;2.72;;;9.40;99.90;;;;;;4898087;29;20055;-64
2022/11/06 08:02:16;;;;;;;12.25;3.05;;;9.50;99.90;;;;;;4932109;29;20695;-65
2022/11/06 08:04:42;;;;;;;8.02;3.47;;;9.50;99.90;;;;;;4933224;29;20079;-65
2022/11/06 08:07:07;;;;;;;10.00;2.78;;;9.50;99.90;;;;;;4914678;29;20071;-64
2022/11/06 08:09:33;;;;;;;8.80;3.25;;;9.50;99.90;;;;;;4889207;29;20039;-64
2022/11/06 08:11:58;;;;;;;7.47;2.92;;;9.50;99.90;;;;;;4920177;29;20040;-64
2022/11/06 08:14:24;;;;;;;8.95;2.67;;;9.40;99.90;;;;;;4892046;29;20600;-64
2022/11/06 08:16:49;;;;;;;8.30;2.65;;;9.40;99.90;;;;;;4924314;29;20047;-65
2022/11/06 08:19:15;;;;;;;8.05;3.15;;;9.50;99.90;;;;;;4905902;29;20050;-64
2022/11/06 08:21:40;;;;;;;7.63;2.72;;;9.50;99.90;;;;;;4921338;29;20036;-64
2022/11/06 08:24:06;;;;;;;8.60;3.20;;;9.50;99.90;;;;;;4916917;29;20046;-66
2022/11/06 08:26:32;;;;;;;6.57;2.75;;;9.60;99.90;;;;;;4923778;29;20100;-64
2022/11/06 08:28:58;;;;;;;7.57;2.70;;;9.70;99.90;;;;;;4919535;29;20134;-65
2022/11/06 08:31:24;;;;;;;10.63;2.72;;;9.70;99.90;;;;;;4920906;29;20139;-65
2022/11/06 08:33:50;;;;;;;8.43;2.70;;;9.80;99.90;;;;;;4920269;29;20044;-64
2022/11/06 08:36:16;;;;;;;6.55;2.47;;;9.80;99.90;;;;;;4932516;29;20046;-64
2022/11/06 08:38:41;;;;;;;6.90;3.05;;;9.80;99.90;;;;;;4916322;29;20053;-64
2022/11/06 08:41:11;;;;;;;9.07;2.72;;;9.70;99.90;;;;;;4915248;29;20440;-65
2022/11/06 08:43:37;;;;;;;10.13;3.03;;;9.80;99.90;;;;;;4925758;29;20043;-64
2022/11/06 08:46:04;;;;;;;6.18;2.67;;;9.80;99.90;;;;;;4931127;29;20404;-63
2022/11/06 08:48:30;;;;;;;6.28;2.47;;;9.90;99.90;;;;;;4932185;29;20484;-64
2022/11/06 08:50:55;;;;;;;6.90;2.63;;;9.80;99.90;;;;;;4915459;29;20099;-65
2022/11/06 08:53:21;;;;;;;11.48;2.70;;;9.90;99.90;;;;;;4929059;29;20078;-65
2022/11/06 08:55:46;;;;;;;6.43;2.70;;;9.90;99.90;;;;;;4915051;29;20055;-64
2022/11/06 08:58:13;;;;;;;9.70;2.72;;;9.90;99.90;;;;;;4930326;29;20456;-64
2022/11/06 09:00:38;;;;;;;7.03;2.58;;;9.70;99.90;;;;;;4904725;29;20126;-65
2022/11/06 09:03:11;;;;;;;10.73;2.92;;;9.50;99.90;;;;;;4912782;29;20150;-63
2022/11/06 09:05:40;;;;;;;7.95;3.05;;;9.40;99.90;;;;;;4931470;29;20047;-64
2022/11/06 09:08:06;;;;;;;8.27;3.05;;;9.40;99.90;;;;;;4928114;29;20058;-64
2022/11/06 09:10:32;;;;;;;7.00;2.38;;;9.40;99.90;;;;;;4931171;29;20051;-64
2022/11/06 09:12:58;;;;;;;11.90;3.33;;;9.40;99.90;;;;;;4915389;29;20043;-65
2022/11/06 09:15:24;;;;;;;7.03;3.38;;;9.40;99.90;;;;;;4907019;29;20043;-64
2022/11/06 09:17:51;;;;;;;8.23;3.47;;;9.40;99.90;;;;;;4933245;29;20032;-63
2022/11/06 09:20:19;;;;;;;4.97;2.78;;;9.50;99.90;;;;;;4933046;29;20130;-65
2022/11/06 09:22:45;;;;;;;6.30;3.20;;;9.50;99.90;;;;;;4932855;29;20040;-64
2022/11/06 09:25:11;;;;;;;9.07;3.78;;;9.50;99.90;;;;;;4926527;29;20035;-64
2022/11/06 09:27:45;;;;;;;11.60;2.97;;;9.50;99.90;;;;;;4933413;29;20407;-66
2022/11/06 09:30:12;;;;;;;6.80;2.78;;;9.60;99.90;;;;;;4932106;29;20048;-64
2022/11/06 09:32:43;;;;;;;6.93;2.90;;;9.50;99.90;;;;;;4930720;29;20440;-64
2022/11/06 09:35:09;;;;;;;7.63;3.00;;;9.60;99.90;;;;;;4916241;29;20051;-62
2022/11/06 09:37:34;;;;;;;12.52;3.22;;;9.70;99.90;;;;;;4896947;29;20388;-64
2022/11/06 09:40:00;;;;;;;10.75;2.92;;;9.80;99.90;;;;;;4929386;29;20039;-65
2022/11/06 09:42:39;;;;;;;6.13;2.90;;;9.90;99.90;;;;;;4925729;29;20134;-64
2022/11/06 09:45:21;;;;;;;8.23;3.00;;;10.10;99.90;;;;;;4928936;29;20484;-65
2022/11/06 09:47:54;;;;;;;7.65;2.60;;;10.20;99.90;;;;;;4925168;29;20044;-65
2022/11/06 09:50:25;;;;;;;9.82;2.97;;;10.30;99.90;;;;;;4930607;29;20071;-64
2022/11/06 09:52:56;;;;;;;7.82;2.65;;;10.40;99.90;;;;;;4912976;29;20044;-66
2022/11/06 09:55:29;;;;;;;9.75;2.38;;;10.50;99.90;;;;;;4931826;29;20095;-64
2022/11/06 09:58:08;;;;;;;5.95;1.95;;;10.50;99.90;;;;;;4929016;29;20056;-62
2022/11/06 10:00:34;;;;;;;10.77;2.85;;;10.40;99.90;;;;;;4933404;29;20047;-65
2022/11/06 10:03:18;;;;;;;6.65;2.05;;;10.40;99.90;;;;;;4929207;29;20515;-63
2022/11/06 10:05:45;;;;;;;8.32;2.28;;;10.40;99.90;;;;;;4923179;29;20090;-64
2022/11/06 10:08:25;;;;;;;9.23;3.45;;;10.50;99.90;;;;;;4930728;29;20103;-65
2022/11/06 10:11:05;;;;;;;3.40;1.85;;;10.60;99.90;;;;;;4914893;29;20050;-65
2022/11/06 10:13:52;;;;;;;7.67;2.20;;;10.70;99.90;;;;;;4928500;29;20055;-64
2022/11/06 10:16:40;;;;;;;6.70;2.03;;;10.90;99.90;;;;;;4928678;29;20295;-64
2022/11/06 10:19:30;;;;;;;9.05;2.05;;;11.00;99.90;;;;;;4931257;29;20071;-65
2022/11/06 10:22:10;;;;;;;6.43;2.10;;;11.10;99.90;;;;;;4931517;29;20544;-65
2022/11/06 10:25:06;;;;;;;5.13;2.17;;;11.10;99.90;;;;;;4914003;29;20396;-63
2022/11/06 10:27:39;;;;;;;7.50;2.05;;;11.20;99.90;;;;;;4918406;29;22034;-65
2022/11/06 10:30:17;;;;;;;8.20;3.05;;;11.20;99.90;;;;;;4903842;29;20138;-65
2022/11/06 10:33:01;;;;;;;6.57;2.15;;;11.20;99.90;;;;;;4878606;29;20036;-65
2022/11/06 10:35:38;;;;;;;4.40;1.70;;;11.30;99.90;;;;;;4908576;29;20040;-65
2022/11/06 10:38:17;;;;;;;7.43;2.15;;;11.30;99.90;;;;;;4933573;29;20488;-63
2022/11/06 10:40:47;;;;;;;4.40;1.80;;;11.30;99.90;;;;;;4926717;29;20048;-64
2022/11/06 10:43:24;;;;;;;3.55;1.80;;;11.30;99.90;;;;;;4927136;29;20044;-65
2022/11/06 10:46:15;;;;;;;5.50;2.03;;;11.40;99.90;;;;;;4899184;29;20043;-64
2022/11/06 10:48:47;;;;;;;3.83;2.08;;;11.40;99.90;;;;;;4933366;29;20147;-65
2022/11/06 10:51:35;;;;;;;5.78;2.42;;;11.20;99.90;;;;;;4935183;29;20086;-64
2022/11/06 10:54:25;;;;;;;5.10;2.20;;;11.10;99.90;;;;;;4918511;29;20052;-65
2022/11/06 10:57:15;;;;;;;7.60;2.47;;;10.70;99.90;;;;;;4936032;29;20046;-66
2022/11/06 10:59:41;;;;;;;10.43;3.25;;;10.40;99.90;;;;;;4914896;29;20059;-65
2022/11/06 11:02:31;;;;;;;9.73;2.95;;;10.40;99.90;;;;;;4930807;29;20395;-65
2022/11/06 11:04:57;;;;;;;9.70;2.90;;;10.40;99.90;;;;;;4933263;29;20538;-65
2022/11/06 11:07:23;;;;;;;10.90;2.90;;;10.40;99.90;;;;;;4934077;29;20035;-65
2022/11/06 11:09:49;;;;;;;9.68;3.03;;;10.50;99.90;;;;;;4930856;29;20048;-65
2022/11/06 11:12:29;;;;;;;9.85;3.33;;;10.70;99.90;;;;;;4934385;29;20047;-64
2022/11/06 11:15:11;;;;;;;5.82;3.30;;;11.00;99.90;;;;;;4934992;29;20051;-64
2022/11/06 11:17:37;;;;;;;7.15;2.80;;;11.00;99.90;;;;;;4931694;29;20062;-64
2022/11/06 11:20:23;;;;;;;8.18;3.00;;;11.10;99.90;;;;;;4933293;29;20047;-64
2022/11/06 11:23:20;;;;;;;8.32;2.58;;;11.10;99.90;;;;;;4933553;29;20070;-63
2022/11/06 11:25:52;;;;;;;7.55;2.50;;;11.10;99.90;;;;;;4933966;29;20123;-64
2022/11/06 11:28:28;;;;;;;6.35;2.08;;;11.10;99.90;;;;;;4933270;29;20429;-64
2022/11/06 11:31:10;;;;;;;6.72;2.20;;;11.10;99.90;;;;;;4930205;29;20098;-64
2022/11/06 11:33:37;;;;;;;6.80;2.17;;;11.00;99.90;;;;;;4926645;29;20503;-65
2022/11/06 11:36:05;;;;;;;5.43;1.92;;;10.90;99.90;;;;;;4932536;29;20044;-64
2022/11/06 11:38:33;;;;;;;6.90;2.00;;;10.90;99.90;;;;;;4930813;29;20031;-64
2022/11/06 11:41:13;;;;;;;6.70;2.13;;;10.90;99.90;;;;;;4936020;29;20036;-65
2022/11/06 11:43:39;;;;;;;10.63;2.28;;;11.00;99.90;;;;;;4916788;29;20373;-64
2022/11/06 11:46:08;;;;;;;6.90;1.88;;;11.00;99.90;;;;;;4900642;29;20107;-64
2022/11/06 11:48:57;;;;;;;6.13;2.33;;;11.00;99.90;;;;;;4920929;29;20052;-64
2022/11/06 11:51:43;;;;;;;6.93;1.88;;;11.10;99.90;;;;;;4935980;29;20043;-64
2022/11/06 11:54:12;;;;;;;7.75;1.90;;;11.20;99.90;;;;;;4933764;29;20035;-64
2022/11/06 11:57:02;;;;;;;3.90;2.33;;;11.30;99.90;;;;;;4915249;29;20062;-65
2022/11/06 11:59:48;;;;;;;6.30;1.75;;;11.40;99.90;;;;;;4894322;29;20064;-63
2022/11/06 12:02:28;;;;;;;5.03;1.75;;;11.70;99.90;;;;;;4910269;29;20115;-63
2022/11/06 12:05:07;;;;;;;6.57;2.07;;;11.80;99.90;;;;;;4925727;29;20047;-66
2022/11/06 12:07:35;;;;;;;3.72;1.60;;;11.80;99.90;;;;;;4936495;29;20287;-65
2022/11/06 12:10:16;;;;;;;6.30;1.70;;;11.90;99.90;;;;;;4899851;29;20048;-65
2022/11/06 12:12:48;;;;;;;6.20;1.42;;;11.90;99.90;;;;;;4920936;29;20028;-65
2022/11/06 12:15:22;;;;;;;4.47;1.70;;;12.00;99.90;;;;;;4934792;29;20163;-65
2022/11/06 12:18:05;;;;;;;10.10;1.98;;;12.00;99.90;;;;;;4934971;29;20102;-65
2022/11/06 12:20:52;;;;;;;6.20;2.00;;;12.10;99.90;;;;;;4908446;29;20126;-65
2022/11/06 12:23:36;;;;;;;4.65;1.50;;;12.20;99.90;;;;;;4923781;29;20411;-64
2022/11/06 12:26:17;;;;;;;3.63;1.65;;;12.20;99.90;;;;;;4912136;29;20039;-64
2022/11/06 12:28:44;;;;;;;6.18;1.50;;;12.30;99.90;;;;;;4930617;29;20050;-64
2022/11/06 12:31:41;;;;;;;7.22;1.92;;;12.30;99.90;;;;;;4912997;29;20054;-66
2022/11/06 12:34:14;;;;;;;4.20;1.48;;;12.30;99.90;;;;;;4930907;29;20051;-66
2022/11/06 12:36:45;;;;;;;6.35;1.35;;;12.30;99.90;;;;;;4926248;29;20086;-66
2022/11/06 12:39:18;;;;;;;4.68;1.48;;;12.30;99.90;;;;;;4929241;29;20094;-65
2022/11/06 12:41:48;;;;;;;6.90;1.80;;;12.30;99.90;;;;;;4915354;29;20040;-64
2022/11/06 12:44:15;;;;;;;3.97;1.42;;;12.20;99.90;;;;;;4933627;29;20040;-64
2022/11/06 12:47:06;;;;;;;4.68;1.40;;;12.30;99.90;;;;;;4924135;29;20075;-66
2022/11/06 12:50:09;;;;;;;5.13;1.95;;;12.30;99.90;;;;;;4930703;29;20396;-66
2022/11/06 12:52:46;;;;;;;5.25;1.55;;;12.30;99.90;;;;;;4928605;29;20097;-65
2022/11/06 12:55:28;;;;;;;8.63;1.80;;;12.30;99.90;;;;;;4926419;29;20091;-65
2022/11/06 12:58:16;;;;;;;5.68;1.98;;;12.20;99.90;;;;;;4911527;29;20052;-65
2022/11/06 13:00:59;;;;;;;5.20;1.63;;;12.20;99.90;;;;;;4932814;29;20162;-65
2022/11/06 13:03:34;;;;;;;5.05;1.73;;;12.10;99.90;;;;;;4928377;29;20046;-66
2022/11/06 13:06:19;;;;;;;4.80;1.50;;;12.10;99.90;;;;;;4928747;29;20551;-66
2022/11/06 13:09:08;;;;;;;4.75;1.77;;;12.00;99.90;;;;;;4900898;29;20104;-65
2022/11/06 13:11:57;;;;;;;5.40;2.10;;;12.00;99.90;;;;;;4933996;29;20095;-65
2022/11/06 13:14:39;;;;;;;4.80;1.55;;;12.00;99.90;;;;;;4926866;29;20051;-65
2022/11/06 13:17:20;;;;;;;9.13;1.90;;;12.00;99.90;;;;;;4931824;29;20388;-65
2022/11/06 13:20:02;;;;;;;7.95;1.75;;;12.00;99.90;;;;;;4915666;29;20055;-65
2022/11/06 13:22:52;;;;;;;6.43;1.70;;;11.90;99.90;;;;;;4930115;29;20482;-66
2022/11/06 13:25:40;;;;;;;6.22;1.75;;;11.90;99.90;;;;;;4925773;29;20048;-66